Time;durP1;ratioP1;P1;durP2;ratioP2;P2;SDS_P1;SDS_P2;PMS_P1;PMS_P2;Temp;Humidity;BMP_temperature;BMP_pressure;BME280_temperature;BME280_humidity;BME280_pressure;Samples;Min_cycle;Max_cycle;Signal;HPM_P1;HPM_P2
2022/10/09 00:01:25;;;;;;;14.65;3.55;;;8.80;99.90;;;;;;5072045;28;20051;-76
2022/10/09 00:03:53;;;;;;;8.27;3.15;;;8.80;99.90;;;;;;5071364;28;20384;-77
2022/10/09 00:06:30;;;;;;;10.95;4.18;;;8.80;99.90;;;;;;5071973;28;20025;-76
2022/10/09 00:08:57;;;;;;;8.57;3.40;;;8.80;99.90;;;;;;5071465;28;20020;-76
2022/10/09 00:11:26;;;;;;;6.60;3.42;;;8.80;99.90;;;;;;5071863;28;20556;-77
2022/10/09 00:13:53;;;;;;;15.45;3.75;;;8.70;99.90;;;;;;5071944;28;20122;-76
2022/10/09 00:16:20;;;;;;;10.57;3.92;;;8.80;99.90;;;;;;5071214;28;20025;-76
2022/10/09 00:18:46;;;;;;;12.82;3.22;;;8.70;99.90;;;;;;5071726;28;20025;-76
2022/10/09 00:21:21;;;;;;;10.05;3.53;;;8.70;99.90;;;;;;5072118;28;20029;-76
2022/10/09 00:23:48;;;;;;;7.85;3.25;;;8.70;99.90;;;;;;5070649;28;20067;-76
2022/10/09 00:26:17;;;;;;;6.50;3.35;;;8.70;99.90;;;;;;5071776;28;20016;-75
2022/10/09 00:28:43;;;;;;;5.72;3.40;;;8.70;99.90;;;;;;5071681;28;20499;-76
2022/10/09 00:31:10;;;;;;;9.55;3.40;;;8.60;99.90;;;;;;5070762;28;20074;-76
2022/10/09 00:33:36;;;;;;;13.07;3.30;;;8.60;99.90;;;;;;5071748;28;20099;-76
2022/10/09 00:36:04;;;;;;;5.53;3.28;;;8.60;99.90;;;;;;5071647;28;20031;-76
2022/10/09 00:38:30;;;;;;;10.50;3.30;;;8.60;99.90;;;;;;5071048;28;20118;-76
2022/10/09 00:40:56;;;;;;;9.02;3.53;;;8.50;99.90;;;;;;5071612;28;20467;-76
2022/10/09 00:43:40;;;;;;;7.32;2.70;;;8.60;99.90;;;;;;5071633;28;20472;-76
2022/10/09 00:46:28;;;;;;;14.65;4.30;;;8.50;99.90;;;;;;5071156;28;20036;-76
2022/10/09 00:49:09;;;;;;;5.15;3.17;;;8.50;99.90;;;;;;5071836;28;20057;-75
2022/10/09 00:51:35;;;;;;;11.60;3.42;;;8.40;99.90;;;;;;5070656;28;20033;-76
2022/10/09 00:54:04;;;;;;;7.47;3.45;;;8.50;99.90;;;;;;5071903;28;20051;-76
2022/10/09 00:56:29;;;;;;;12.00;3.78;;;8.40;99.90;;;;;;5071244;28;20021;-76
2022/10/09 00:58:56;;;;;;;7.43;3.08;;;8.50;99.90;;;;;;5069976;28;20029;-76
2022/10/09 01:01:22;;;;;;;11.90;4.25;;;8.40;99.90;;;;;;5071352;28;20497;-76
2022/10/09 01:03:48;;;;;;;13.38;3.67;;;8.40;99.90;;;;;;5071136;28;20040;-76
2022/10/09 01:06:24;;;;;;;8.75;4.13;;;8.40;99.90;;;;;;5056794;28;20159;-76
2022/10/09 01:08:59;;;;;;;6.90;3.95;;;8.30;99.90;;;;;;5065666;28;20025;-76
2022/10/09 01:11:54;;;;;;;8.73;3.53;;;8.30;99.90;;;;;;5074439;28;20028;-77
2022/10/09 01:14:34;;;;;;;8.60;3.80;;;8.30;99.90;;;;;;5075027;28;20082;-76
2022/10/09 01:17:24;;;;;;;12.48;3.60;;;8.30;99.90;;;;;;5075374;28;20025;-76
2022/10/09 01:20:04;;;;;;;6.30;3.77;;;8.20;99.90;;;;;;5061281;28;20032;-76
2022/10/09 01:22:37;;;;;;;6.30;3.53;;;8.20;99.90;;;;;;5074639;28;20384;-77
2022/10/09 01:25:07;;;;;;;9.05;3.95;;;8.20;99.90;;;;;;5074710;28;20480;-76
2022/10/09 01:27:36;;;;;;;8.20;3.67;;;8.20;99.90;;;;;;5074275;28;20025;-77
2022/10/09 01:30:09;;;;;;;6.85;3.83;;;8.20;99.90;;;;;;5075253;28;20388;-77
2022/10/09 01:32:39;;;;;;;11.73;3.75;;;8.20;99.90;;;;;;5075101;28;20388;-77
2022/10/09 01:35:07;;;;;;;8.57;3.80;;;8.20;99.90;;;;;;5075409;28;20032;-77
2022/10/09 01:37:35;;;;;;;6.20;3.83;;;8.20;99.90;;;;;;5074296;28;20041;-76
2022/10/09 01:40:03;;;;;;;16.33;4.80;;;8.20;99.90;;;;;;5073830;28;20021;-76
2022/10/09 01:42:30;;;;;;;8.13;3.80;;;8.20;99.90;;;;;;5074412;28;20040;-76
2022/10/09 01:44:55;;;;;;;10.20;5.05;;;8.20;99.90;;;;;;5074585;28;20020;-76
2022/10/09 01:47:21;;;;;;;14.35;4.10;;;8.10;99.90;;;;;;5073930;28;20027;-76
2022/10/09 01:50:00;;;;;;;10.07;4.20;;;8.10;99.90;;;;;;5074210;28;20108;-76
2022/10/09 01:52:37;;;;;;;8.35;3.92;;;8.10;99.90;;;;;;5074340;28;20102;-76
2022/10/09 01:55:21;;;;;;;5.13;3.78;;;8.10;99.90;;;;;;5074567;28;20029;-77
2022/10/09 01:58:07;;;;;;;7.68;3.60;;;8.10;99.90;;;;;;5074204;28;20060;-75
2022/10/09 02:00:38;;;;;;;13.02;4.57;;;8.10;99.90;;;;;;5073810;28;20020;-76
2022/10/09 02:03:08;;;;;;;12.65;4.10;;;8.00;99.90;;;;;;5073796;28;20029;-76
2022/10/09 02:05:35;;;;;;;10.32;3.58;;;8.00;99.90;;;;;;5074002;28;20130;-77
2022/10/09 02:08:04;;;;;;;8.57;4.20;;;8.00;99.90;;;;;;5074372;28;20469;-75
2022/10/09 02:10:33;;;;;;;8.48;4.70;;;8.60;99.90;;;;;;5073198;28;20024;-76
2022/10/09 02:12:59;;;;;;;13.60;4.38;;;8.00;99.90;;;;;;5074131;28;20117;-77
2022/10/09 02:15:52;;;;;;;15.32;4.57;;;8.00;99.90;;;;;;5073176;28;20025;-77
2022/10/09 02:18:44;;;;;;;12.00;3.72;;;8.00;99.90;;;;;;5074061;28;20040;-75
2022/10/09 02:21:17;;;;;;;6.82;4.47;;;8.00;99.90;;;;;;5073763;28;20039;-76
2022/10/09 02:23:45;;;;;;;9.25;4.47;;;8.00;99.90;;;;;;5073085;28;20539;-76
2022/10/09 02:26:12;;;;;;;8.50;4.63;;;7.90;99.90;;;;;;5073788;28;20511;-76
2022/10/09 02:28:38;;;;;;;8.07;4.68;;;8.00;99.90;;;;;;5073713;28;20037;-76
2022/10/09 02:31:26;;;;;;;11.52;4.30;;;7.90;99.90;;;;;;5072970;28;20051;-76
2022/10/09 02:33:59;;;;;;;12.60;5.05;;;7.90;99.90;;;;;;5074367;28;20032;-76
2022/10/09 02:36:25;;;;;;;15.18;4.78;;;7.90;99.90;;;;;;5072870;28;20031;-77
2022/10/09 02:38:52;;;;;;;7.22;3.95;;;7.90;99.90;;;;;;5073764;28;20031;-75
2022/10/09 02:41:18;;;;;;;9.65;4.45;;;7.90;99.90;;;;;;5073629;28;20099;-76
2022/10/09 02:43:43;;;;;;;9.07;4.78;;;7.80;99.90;;;;;;5073520;28;20123;-76
2022/10/09 02:46:09;;;;;;;7.85;4.93;;;7.80;99.90;;;;;;5073688;28;20024;-76
2022/10/09 02:48:35;;;;;;;10.38;5.35;;;7.80;99.90;;;;;;5073297;28;20028;-76
2022/10/09 02:51:00;;;;;;;7.20;4.53;;;7.80;99.90;;;;;;5072729;28;20115;-76
2022/10/09 02:53:26;;;;;;;11.98;4.60;;;7.80;99.90;;;;;;5059010;28;20084;-76
2022/10/09 02:55:52;;;;;;;12.95;5.45;;;7.80;99.90;;;;;;5073528;28;20427;-77
2022/10/09 02:58:18;;;;;;;12.10;5.53;;;7.80;99.90;;;;;;5072510;28;20044;-76
2022/10/09 03:00:50;;;;;;;7.68;5.18;;;7.80;99.90;;;;;;5072899;28;20472;-76
2022/10/09 03:03:16;;;;;;;12.70;5.25;;;7.70;99.90;;;;;;5073013;28;20099;-77
2022/10/09 03:05:42;;;;;;;12.45;5.22;;;7.70;99.90;;;;;;5072108;28;20182;-77
2022/10/09 03:08:07;;;;;;;11.55;5.38;;;7.70;99.90;;;;;;5072762;28;20051;-77
2022/10/09 03:10:35;;;;;;;12.52;4.88;;;7.70;99.90;;;;;;5072415;28;20089;-77
2022/10/09 03:13:00;;;;;;;9.00;5.13;;;7.60;99.90;;;;;;5072263;28;20028;-76
2022/10/09 03:15:36;;;;;;;11.45;5.10;;;7.70;99.90;;;;;;5072420;28;20029;-75
2022/10/09 03:18:02;;;;;;;10.38;5.07;;;7.70;99.90;;;;;;5065248;28;20028;-75
2022/10/09 03:20:30;;;;;;;8.60;4.97;;;7.60;99.90;;;;;;5065766;28;20025;-76
2022/10/09 03:22:56;;;;;;;6.82;4.65;;;7.50;99.90;;;;;;5059258;28;20025;-76
2022/10/09 03:25:22;;;;;;;13.02;5.75;;;7.50;99.90;;;;;;5072531;28;20135;-76
2022/10/09 03:27:50;;;;;;;13.63;6.03;;;7.50;99.90;;;;;;5071581;28;20365;-76
2022/10/09 03:30:16;;;;;;;8.68;4.18;;;7.50;99.90;;;;;;5072726;28;20384;-76
2022/10/09 03:32:41;;;;;;;9.30;5.82;;;7.40;99.90;;;;;;5070902;28;20029;-77
2022/10/09 03:35:08;;;;;;;10.30;5.25;;;7.40;99.90;;;;;;5072650;28;20021;-77
2022/10/09 03:37:33;;;;;;;12.93;5.18;;;7.40;99.90;;;;;;5072166;28;20055;-78
2022/10/09 03:39:59;;;;;;;9.73;5.57;;;7.40;99.90;;;;;;5071958;28;20461;-77
2022/10/09 03:42:25;;;;;;;13.10;5.30;;;7.40;99.90;;;;;;5072204;28;20039;-77
2022/10/09 03:44:50;;;;;;;10.88;5.40;;;7.40;99.90;;;;;;5072708;28;20021;-77
2022/10/09 03:47:16;;;;;;;7.50;5.40;;;7.40;99.90;;;;;;5071921;28;20103;-77
2022/10/09 03:49:42;;;;;;;8.57;5.45;;;7.30;99.90;;;;;;5072011;28;20495;-77
2022/10/09 03:52:07;;;;;;;10.00;5.35;;;7.30;99.90;;;;;;5072342;28;20043;-77
2022/10/09 03:54:33;;;;;;;9.60;5.28;;;7.30;99.90;;;;;;5071046;28;20530;-75
2022/10/09 03:56:59;;;;;;;13.43;5.80;;;7.30;99.90;;;;;;5072218;28;20074;-78
2022/10/09 03:59:24;;;;;;;11.32;5.80;;;7.30;99.90;;;;;;5072162;28;20472;-78
2022/10/09 04:01:50;;;;;;;8.32;5.22;;;7.20;99.90;;;;;;5057444;28;20103;-76
2022/10/09 04:04:16;;;;;;;12.30;6.45;;;7.20;99.90;;;;;;5072312;28;20384;-77
2022/10/09 04:06:42;;;;;;;7.60;5.28;;;7.20;99.90;;;;;;5071713;28;20071;-77
2022/10/09 04:09:08;;;;;;;14.10;5.68;;;7.20;99.90;;;;;;5071311;28;20020;-76
2022/10/09 04:11:34;;;;;;;11.02;5.53;;;7.20;99.90;;;;;;5071865;28;20502;-77
2022/10/09 04:14:00;;;;;;;14.43;6.30;;;7.10;99.90;;;;;;5072246;28;20021;-76
2022/10/09 04:16:26;;;;;;;8.73;5.15;;;7.10;99.90;;;;;;5071307;28;20404;-77
2022/10/09 04:18:51;;;;;;;9.45;5.78;;;7.10;99.90;;;;;;5072309;28;20020;-77
2022/10/09 04:21:17;;;;;;;10.65;5.47;;;7.10;99.90;;;;;;5072369;28;20027;-76
2022/10/09 04:23:42;;;;;;;11.55;5.65;;;7.10;99.90;;;;;;5070845;28;20020;-77
2022/10/09 04:26:10;;;;;;;9.35;5.45;;;7.10;99.90;;;;;;5071827;28;20048;-77
2022/10/09 04:28:36;;;;;;;9.65;5.45;;;7.10;99.90;;;;;;5071566;28;20108;-76
2022/10/09 04:31:01;;;;;;;16.15;7.07;;;7.00;99.90;;;;;;5071179;28;20111;-76
2022/10/09 04:33:27;;;;;;;14.32;9.23;;;7.00;99.90;;;;;;5071775;28;20012;-77
2022/10/09 04:35:54;;;;;;;15.02;8.50;;;7.00;99.90;;;;;;5056777;28;20017;-77
2022/10/09 04:38:20;;;;;;;12.98;7.50;;;7.00;99.90;;;;;;5071851;28;20025;-77
2022/10/09 04:41:03;;;;;;;11.32;6.47;;;7.00;99.90;;;;;;5071486;28;20362;-76
2022/10/09 04:43:29;;;;;;;12.13;5.50;;;7.00;99.90;;;;;;5058147;28;20472;-76
2022/10/09 04:45:55;;;;;;;12.55;5.97;;;6.90;99.90;;;;;;5074698;28;20119;-76
2022/10/09 04:48:21;;;;;;;15.80;6.00;;;6.90;99.90;;;;;;5075506;28;20456;-75
2022/10/09 04:50:47;;;;;;;14.48;6.25;;;6.90;99.90;;;;;;5074710;28;20043;-76
2022/10/09 04:53:13;;;;;;;14.48;6.18;;;6.90;99.90;;;;;;5075628;28;20415;-76
2022/10/09 04:55:40;;;;;;;16.02;6.65;;;6.90;99.90;;;;;;5076296;28;20029;-76
2022/10/09 04:58:07;;;;;;;12.77;6.47;;;6.90;99.90;;;;;;5075613;28;20210;-76
2022/10/09 05:00:32;;;;;;;15.98;7.68;;;6.80;99.90;;;;;;5075397;28;20428;-77
2022/10/09 05:02:58;;;;;;;11.07;6.95;;;6.90;99.90;;;;;;5075699;28;20021;-76
2022/10/09 05:05:23;;;;;;;21.40;7.13;;;6.80;99.90;;;;;;5075060;28;20550;-76
2022/10/09 05:07:49;;;;;;;22.88;6.82;;;6.90;99.90;;;;;;5075973;28;20020;-77
2022/10/09 05:10:15;;;;;;;15.30;8.10;;;6.90;99.90;;;;;;5075311;28;20099;-77
2022/10/09 05:12:43;;;;;;;16.35;6.93;;;6.90;99.90;;;;;;5060303;28;20066;-77
2022/10/09 05:15:09;;;;;;;12.30;6.13;;;6.90;99.90;;;;;;5075299;28;20081;-76
2022/10/09 05:17:34;;;;;;;16.00;7.18;;;6.80;99.90;;;;;;5074980;28;20111;-77
2022/10/09 05:20:00;;;;;;;13.32;6.82;;;6.80;99.90;;;;;;5074350;28;20024;-77
2022/10/09 05:22:26;;;;;;;11.77;6.50;;;6.80;99.90;;;;;;5074561;28;20028;-75
2022/10/09 05:24:51;;;;;;;12.70;7.47;;;6.70;99.90;;;;;;5074908;28;20056;-75
2022/10/09 05:27:17;;;;;;;12.43;7.43;;;6.70;99.90;;;;;;5074203;28;20024;-75
2022/10/09 05:29:42;;;;;;;9.13;6.40;;;6.80;99.90;;;;;;5074831;28;20056;-75
2022/10/09 05:32:08;;;;;;;15.00;6.82;;;6.80;99.90;;;;;;5074115;28;20067;-75
2022/10/09 05:34:34;;;;;;;10.82;6.47;;;6.70;99.90;;;;;;5074142;28;20024;-76
2022/10/09 05:37:00;;;;;;;9.27;6.30;;;6.70;99.90;;;;;;5074776;28;20070;-74
2022/10/09 05:39:25;;;;;;;8.70;6.38;;;6.70;99.90;;;;;;5073520;28;20032;-75
2022/10/09 05:41:51;;;;;;;16.05;7.00;;;6.70;99.90;;;;;;5074470;28;20028;-75
2022/10/09 05:44:16;;;;;;;7.47;6.22;;;6.60;99.90;;;;;;5074378;28;20016;-75
2022/10/09 05:46:42;;;;;;;13.15;7.40;;;6.60;99.90;;;;;;5073445;28;20024;-76
2022/10/09 05:49:10;;;;;;;13.43;6.82;;;6.60;99.90;;;;;;5074816;28;20032;-76
2022/10/09 05:51:37;;;;;;;11.68;7.30;;;6.60;99.90;;;;;;5074069;28;20037;-76
2022/10/09 05:54:04;;;;;;;13.55;7.70;;;6.60;99.90;;;;;;5074079;28;20086;-76
2022/10/09 05:56:37;;;;;;;14.65;7.65;;;6.50;99.90;;;;;;5074745;28;20090;-76
2022/10/09 05:59:07;;;;;;;20.00;7.57;;;6.60;99.90;;;;;;5074673;28;20036;-76
2022/10/09 06:01:35;;;;;;;;;;;6.60;99.90;;;;;;5073599;28;20032;-77
2022/10/09 06:04:01;;;;;;;13.02;7.90;;;6.60;99.90;;;;;;5074487;28;19912;-76
2022/10/09 06:06:29;;;;;;;14.18;7.97;;;6.60;99.90;;;;;;5073759;28;20435;-76
2022/10/09 06:08:56;;;;;;;18.70;7.63;;;6.60;99.90;;;;;;5073390;28;20495;-77
2022/10/09 06:11:27;;;;;;;13.65;8.65;;;6.60;99.90;;;;;;5074409;28;20035;-77
2022/10/09 06:13:53;;;;;;;14.30;8.90;;;6.60;99.90;;;;;;5074175;28;20094;-77
2022/10/09 06:16:18;;;;;;;15.45;8.00;;;6.70;99.90;;;;;;5073667;28;20069;-77
2022/10/09 06:18:46;;;;;;;13.27;7.57;;;6.70;99.90;;;;;;5073692;28;20116;-77
2022/10/09 06:21:13;;;;;;;22.13;8.75;;;6.70;99.90;;;;;;5074275;28;20109;-76
2022/10/09 06:23:39;;;;;;;17.58;9.70;;;6.70;99.90;;;;;;5072893;28;20050;-77
2022/10/09 06:26:12;;;;;;;16.38;8.85;;;6.70;99.90;;;;;;5073977;28;20484;-76
2022/10/09 06:28:38;;;;;;;21.15;9.43;;;6.70;99.90;;;;;;5072984;28;20082;-77
2022/10/09 06:31:07;;;;;;;17.92;8.88;;;6.80;99.90;;;;;;5073490;28;20040;-76
2022/10/09 06:33:35;;;;;;;16.92;8.85;;;6.80;99.90;;;;;;5073296;28;20016;-75
2022/10/09 06:36:06;;;;;;;17.95;9.30;;;6.80;99.90;;;;;;5073109;28;20379;-77
2022/10/09 06:38:36;;;;;;;10.77;8.57;;;6.90;99.90;;;;;;5073464;28;20017;-77
2022/10/09 06:41:23;;;;;;;17.45;8.18;;;6.90;99.90;;;;;;5073743;28;20055;-76
2022/10/09 06:43:51;;;;;;;18.38;9.55;;;7.00;99.90;;;;;;5072634;28;20036;-76
2022/10/09 06:46:18;;;;;;;11.70;7.75;;;7.00;99.90;;;;;;5073535;28;20079;-76
2022/10/09 06:48:46;;;;;;;19.30;8.98;;;7.10;99.90;;;;;;5073206;28;20021;-76
2022/10/09 06:51:14;;;;;;;13.68;7.70;;;7.10;99.90;;;;;;5072552;28;20029;-77
2022/10/09 06:53:45;;;;;;;15.55;8.80;;;7.10;99.90;;;;;;5073125;28;20074;-77
2022/10/09 06:56:13;;;;;;;16.05;8.00;;;7.20;99.90;;;;;;5073072;28;20074;-77
2022/10/09 06:58:42;;;;;;;19.17;9.02;;;7.20;99.90;;;;;;5072724;28;20031;-77
2022/10/09 07:01:16;;;;;;;17.52;8.45;;;7.30;99.90;;;;;;5073336;28;20384;-77
2022/10/09 07:03:44;;;;;;;16.48;8.65;;;7.40;99.90;;;;;;5072198;28;20028;-76
2022/10/09 07:06:19;;;;;;;12.63;8.38;;;7.40;99.90;;;;;;5073135;28;20028;-76
2022/10/09 07:08:50;;;;;;;14.93;8.15;;;7.50;99.90;;;;;;5071535;28;20430;-77
2022/10/09 07:11:17;;;;;;;;;;;7.60;99.90;;;;;;5072653;28;20506;-76
2022/10/09 07:13:43;;;;;;;17.30;7.80;;;7.60;99.90;;;;;;5072956;28;19918;-76
2022/10/09 07:16:09;;;;;;;15.63;7.80;;;7.70;99.90;;;;;;5073392;28;20426;-76
2022/10/09 07:18:36;;;;;;;14.23;7.75;;;7.80;99.90;;;;;;5073230;28;20492;-77
2022/10/09 07:21:04;;;;;;;11.93;7.22;;;7.90;99.90;;;;;;5073112;28;20032;-76
2022/10/09 07:23:31;;;;;;;14.73;7.13;;;7.90;99.90;;;;;;5072542;28;20048;-77
2022/10/09 07:25:57;;;;;;;13.90;7.43;;;8.00;99.90;;;;;;5071917;28;20114;-76
2022/10/09 07:28:24;;;;;;;14.93;7.10;;;8.10;99.90;;;;;;5074161;28;20054;-76
2022/10/09 07:30:53;;;;;;;13.82;6.93;;;8.10;99.90;;;;;;5073993;28;20507;-76
2022/10/09 07:33:18;;;;;;;13.48;7.10;;;8.20;99.90;;;;;;5072254;28;20111;-76
2022/10/09 07:35:58;;;;;;;16.95;7.18;;;8.30;99.90;;;;;;5072309;28;20086;-76
2022/10/09 07:38:24;;;;;;;12.23;6.47;;;8.40;99.90;;;;;;5072498;28;20021;-77
2022/10/09 07:40:51;;;;;;;16.27;7.03;;;8.40;99.90;;;;;;5071898;28;20024;-77
2022/10/09 07:43:17;;;;;;;16.45;6.63;;;8.50;99.90;;;;;;5072365;28;20025;-75
2022/10/09 07:45:42;;;;;;;13.88;7.50;;;8.50;99.90;;;;;;5071630;28;20035;-75
2022/10/09 07:48:08;;;;;;;15.23;6.88;;;8.60;99.90;;;;;;5071773;28;20063;-76
2022/10/09 07:50:34;;;;;;;19.48;7.35;;;8.70;99.90;;;;;;5072170;28;20150;-77
2022/10/09 07:53:00;;;;;;;10.30;6.20;;;8.80;99.90;;;;;;5071890;28;20472;-77
2022/10/09 07:55:25;;;;;;;12.80;6.00;;;8.80;99.90;;;;;;5071871;28;20163;-76
2022/10/09 07:57:51;;;;;;;16.90;6.70;;;8.90;99.90;;;;;;5072306;28;20035;-77
2022/10/09 08:00:16;;;;;;;14.13;6.22;;;8.90;99.90;;;;;;5071671;28;20349;-77
2022/10/09 08:02:42;;;;;;;12.50;6.60;;;9.10;99.90;;;;;;5071791;28;20384;-75
2022/10/09 08:05:08;;;;;;;15.75;6.13;;;9.20;99.90;;;;;;5072399;28;20028;-75
2022/10/09 08:07:35;;;;;;;15.30;7.15;;;9.20;99.90;;;;;;5071210;28;20514;-77
2022/10/09 08:10:00;;;;;;;8.20;5.47;;;9.30;99.90;;;;;;5072420;28;20058;-76
2022/10/09 08:12:26;;;;;;;12.85;5.28;;;9.40;99.90;;;;;;5071641;28;20415;-76
2022/10/09 08:14:52;;;;;;;18.38;5.93;;;9.50;99.90;;;;;;5071697;28;20044;-76
2022/10/09 08:17:17;;;;;;;14.13;6.13;;;9.60;99.90;;;;;;5072066;28;20028;-75
2022/10/09 08:19:43;;;;;;;13.90;5.88;;;9.70;99.90;;;;;;5071869;28;20036;-76
2022/10/09 08:22:08;;;;;;;11.48;5.32;;;9.70;99.90;;;;;;5071549;28;20058;-76
2022/10/09 08:24:34;;;;;;;8.70;5.22;;;9.90;99.90;;;;;;5071705;28;20046;-76
2022/10/09 08:26:59;;;;;;;14.32;5.30;;;9.90;99.90;;;;;;5072140;28;20476;-76
2022/10/09 08:29:25;;;;;;;14.00;5.78;;;10.00;99.90;;;;;;5070976;28;20036;-76
2022/10/09 08:31:51;;;;;;;11.73;6.30;;;10.20;99.90;;;;;;5071974;28;20033;-76
2022/10/09 08:34:16;;;;;;;6.38;5.03;;;10.20;99.90;;;;;;5071661;28;20078;-76
2022/10/09 08:36:43;;;;;;;12.20;6.43;;;10.30;99.90;;;;;;5071145;28;20025;-76
2022/10/09 08:39:09;;;;;;;19.40;6.70;;;10.40;99.90;;;;;;5071939;28;20028;-76
2022/10/09 08:41:47;;;;;;;10.07;5.32;;;10.60;99.90;;;;;;5071525;28;20544;-76
2022/10/09 08:44:25;;;;;;;15.90;6.18;;;10.60;99.90;;;;;;5071163;28;20059;-76
2022/10/09 08:46:54;;;;;;;23.23;5.60;;;10.70;99.90;;;;;;5059132;28;20032;-76
2022/10/09 08:49:40;;;;;;;14.38;5.30;;;10.80;99.90;;;;;;5071193;28;20024;-76
2022/10/09 08:52:20;;;;;;;13.73;5.75;;;10.90;99.90;;;;;;5060343;28;20067;-76
2022/10/09 08:54:46;;;;;;;13.02;5.93;;;10.90;99.90;;;;;;5071220;28;20035;-76
2022/10/09 08:57:14;;;;;;;9.27;4.32;;;11.00;99.90;;;;;;5070937;28;20020;-76
2022/10/09 08:59:41;;;;;;;10.55;4.68;;;11.00;99.90;;;;;;5071369;28;20024;-76
2022/10/09 09:02:07;;;;;;;14.32;5.60;;;11.10;99.90;;;;;;5071714;28;20043;-76
2022/10/09 09:04:58;;;;;;;10.43;4.60;;;11.20;99.90;;;;;;5070677;28;20063;-76
2022/10/09 09:07:42;;;;;;;15.25;4.50;;;11.30;99.90;;;;;;5059588;28;20044;-76
2022/10/09 09:10:19;;;;;;;10.68;4.63;;;11.40;99.90;;;;;;5071167;28;20020;-75
2022/10/09 09:12:55;;;;;;;13.45;3.92;;;11.50;99.90;;;;;;5057659;28;20495;-76
2022/10/09 09:15:25;;;;;;;12.82;4.00;;;11.60;99.90;;;;;;5071453;28;20469;-75
2022/10/09 09:18:15;;;;;;;10.10;4.20;;;11.60;99.90;;;;;;5070821;28;20076;-77
2022/10/09 09:20:51;;;;;;;10.70;3.70;;;11.80;99.90;;;;;;5071257;28;20067;-76
2022/10/09 09:23:17;;;;;;;11.50;4.97;;;11.80;99.90;;;;;;5071820;28;20115;-76
2022/10/09 09:25:45;;;;;;;12.80;4.47;;;11.90;99.90;;;;;;5070026;28;20212;-76
2022/10/09 09:28:38;;;;;;;6.28;4.10;;;11.90;99.90;;;;;;5071261;28;20099;-76
2022/10/09 09:31:26;;;;;;;11.20;5.13;;;12.00;99.90;;;;;;5072739;28;20099;-77
2022/10/09 09:34:05;;;;;;;13.07;4.78;;;12.10;99.90;;;;;;5075676;28;20032;-76
2022/10/09 09:36:37;;;;;;;11.90;5.35;;;12.10;99.90;;;;;;5074741;28;20473;-76
2022/10/09 09:39:03;;;;;;;15.63;5.82;;;12.30;99.90;;;;;;5076336;28;20031;-77
2022/10/09 09:41:28;;;;;;;8.98;4.85;;;12.40;99.90;;;;;;5077582;28;20024;-76
2022/10/09 09:43:54;;;;;;;13.15;4.82;;;12.40;99.90;;;;;;5075284;28;20032;-76
2022/10/09 09:46:24;;;;;;;10.30;5.50;;;12.40;99.90;;;;;;5074337;28;20021;-76
2022/10/09 09:48:50;;;;;;;14.32;6.63;;;12.50;99.90;;;;;;5076115;28;20027;-76
2022/10/09 09:51:23;;;;;;;12.30;6.20;;;12.60;99.90;;;;;;5075562;28;20040;-76
2022/10/09 09:53:58;;;;;;;11.82;6.28;;;12.70;99.90;;;;;;5074898;28;20028;-76
2022/10/09 09:56:39;;;;;;;13.45;5.80;;;12.80;99.90;;;;;;5074258;28;20514;-77
2022/10/09 09:59:05;;;;;;;11.52;6.40;;;12.80;99.90;;;;;;5074605;28;20048;-75
2022/10/09 10:01:32;;;;;;;10.05;6.63;;;12.90;99.90;;;;;;5059102;28;20123;-76
2022/10/09 10:04:01;;;;;;;11.68;5.45;;;12.90;99.90;;;;;;5074665;28;20025;-76
2022/10/09 10:06:31;;;;;;;11.18;5.60;;;13.00;99.90;;;;;;5073494;28;20151;-76
2022/10/09 10:09:11;;;;;;;18.75;6.90;;;13.10;99.90;;;;;;5074735;28;20032;-76
2022/10/09 10:11:44;;;;;;;10.00;4.40;;;13.10;99.90;;;;;;5073956;28;20521;-76
2022/10/09 10:14:14;;;;;;;10.00;4.60;;;13.20;99.90;;;;;;5073238;28;20020;-77
2022/10/09 10:16:40;;;;;;;11.63;4.63;;;13.30;99.90;;;;;;5074348;28;20025;-77
2022/10/09 10:19:17;;;;;;;15.75;5.13;;;13.30;99.90;;;;;;5074283;28;20032;-76
2022/10/09 10:22:06;;;;;;;10.43;3.95;;;13.40;99.90;;;;;;5072996;28;20028;-76
2022/10/09 10:24:41;;;;;;;7.70;4.43;;;13.40;99.90;;;;;;5073342;28;20410;-76
2022/10/09 10:27:16;;;;;;;8.75;4.40;;;13.50;99.90;;;;;;5074360;28;20123;-77
2022/10/09 10:29:45;;;;;;;8.05;4.18;;;13.60;99.90;;;;;;5059281;28;20056;-77
2022/10/09 10:32:20;;;;;;;12.13;4.00;;;13.60;99.90;;;;;;5073704;28;20472;-76
2022/10/09 10:34:54;;;;;;;6.22;3.55;;;13.70;99.90;;;;;;5072653;28;20067;-76
2022/10/09 10:37:27;;;;;;;8.45;3.45;;;13.70;99.90;;;;;;5073189;28;20468;-76
2022/10/09 10:40:15;;;;;;;8.63;3.58;;;13.70;99.90;;;;;;5074133;28;20036;-76
2022/10/09 10:43:08;;;;;;;8.43;3.75;;;13.80;99.90;;;;;;5072529;28;20027;-76
2022/10/09 10:45:51;;;;;;;8.10;4.93;;;13.90;99.90;;;;;;5073298;28;20017;-76
2022/10/09 10:48:31;;;;;;;9.35;4.80;;;13.90;99.90;;;;;;5073790;28;20069;-77
2022/10/09 10:51:33;;;;;;;7.40;3.67;;;14.00;99.90;;;;;;5072892;28;20040;-77
2022/10/09 10:54:29;;;;;;;6.90;3.90;;;14.10;99.90;;;;;;5054024;28;20029;-75
2022/10/09 10:57:03;;;;;;;9.68;4.63;;;14.20;99.90;;;;;;5059104;28;20056;-75
2022/10/09 10:59:49;;;;;;;10.07;4.38;;;14.20;99.90;;;;;;5073304;28;20035;-75
2022/10/09 11:02:36;;;;;;;11.55;4.22;;;14.30;99.90;;;;;;5061098;28;20023;-75
2022/10/09 11:05:11;;;;;;;7.80;4.80;;;14.30;99.90;;;;;;5072858;28;20017;-76
2022/10/09 11:07:55;;;;;;;11.65;4.10;;;14.40;99.90;;;;;;5072797;28;20085;-75
2022/10/09 11:10:53;;;;;;;9.57;4.28;;;14.40;99.90;;;;;;5072502;28;20024;-76
2022/10/09 11:14:02;;;;;;;9.55;4.32;;;14.50;99.90;;;;;;5065795;28;20044;-76
2022/10/09 11:16:36;;;;;;;7.10;3.75;;;14.50;99.90;;;;;;5072588;28;20495;-75
2022/10/09 11:19:26;;;;;;;10.88;4.20;;;14.60;99.90;;;;;;5072094;28;20039;-77
2022/10/09 11:22:13;;;;;;;9.38;3.70;;;14.60;99.90;;;;;;5072815;28;20465;-76
2022/10/09 11:25:00;;;;;;;12.43;4.47;;;14.70;99.90;;;;;;5058096;28;20072;-76
2022/10/09 11:27:28;;;;;;;8.90;4.10;;;14.80;99.90;;;;;;5072351;28;20029;-75
2022/10/09 11:29:57;;;;;;;13.55;4.68;;;14.80;99.90;;;;;;5073032;28;20028;-75
2022/10/09 11:32:31;;;;;;;7.88;3.95;;;14.90;99.90;;;;;;5087334;28;20071;-75
2022/10/09 11:35:16;;;;;;;6.45;4.00;;;14.90;99.90;;;;;;5072755;28;20032;-77
2022/10/09 11:37:46;;;;;;;10.35;4.63;;;15.00;99.90;;;;;;5072360;28;20032;-76
2022/10/09 11:40:16;;;;;;;9.63;3.75;;;15.10;99.90;;;;;;5071979;28;20024;-76
2022/10/09 11:42:46;;;;;;;6.88;3.35;;;15.10;99.90;;;;;;5072251;28;20041;-76
2022/10/09 11:45:26;;;;;;;6.63;3.40;;;15.10;99.90;;;;;;5071986;28;20323;-76
2022/10/09 11:48:06;;;;;;;8.02;3.55;;;15.20;99.90;;;;;;5072064;28;20271;-76
2022/10/09 11:50:38;;;;;;;;;;;15.20;99.90;;;;;;5072804;28;20159;-78
2022/10/09 11:53:13;;;;;;;9.55;4.13;;;15.30;99.90;;;;;;5057433;28;20038;-77
2022/10/09 11:55:39;;;;;;;8.68;4.60;;;15.40;99.90;;;;;;5072418;28;20024;-76
2022/10/09 11:58:24;;;;;;;6.45;3.35;;;15.50;99.90;;;;;;5072173;28;20487;-77
2022/10/09 12:00:55;;;;;;;7.38;3.70;;;15.50;99.90;;;;;;5075517;28;20107;-77
2022/10/09 12:03:34;;;;;;;10.38;3.25;;;15.60;99.90;;;;;;5073979;28;20028;-77
2022/10/09 12:06:12;;;;;;;8.07;2.75;;;15.70;99.90;;;;;;5071910;28;20035;-77
2022/10/09 12:08:41;;;;;;;3.95;2.17;;;15.80;99.90;;;;;;5071876;28;20028;-77
2022/10/09 12:11:17;;;;;;;5.47;2.85;;;15.80;99.90;;;;;;5072550;28;20496;-77
2022/10/09 12:14:10;;;;;;;5.78;2.63;;;15.80;99.90;;;;;;5073024;28;20051;-77
2022/10/09 12:16:42;;;;;;;5.80;2.58;;;16.00;99.90;;;;;;5068796;28;20032;-78
2022/10/09 12:19:22;;;;;;;6.32;2.83;;;16.00;99.90;;;;;;5071876;28;20020;-77
2022/10/09 12:21:50;;;;;;;;;;;16.00;99.90;;;;;;5071632;28;20043;-78
2022/10/09 12:24:24;;;;;;;6.43;2.35;;;16.00;99.90;;;;;;5071785;28;19912;-77
2022/10/09 12:26:52;;;;;;;2.75;1.80;;;16.10;99.90;;;;;;5071878;28;20028;-77
2022/10/09 12:29:27;;;;;;;5.28;2.30;;;16.20;99.90;;;;;;5071921;28;20035;-77
2022/10/09 12:32:11;;;;;;;5.50;2.30;;;16.30;99.90;;;;;;5074942;28;20036;-77
2022/10/09 12:34:47;;;;;;;7.80;2.25;;;16.40;99.90;;;;;;5073806;28;20354;-77
2022/10/09 12:37:19;;;;;;;6.20;2.03;;;16.40;99.90;;;;;;5075148;28;20040;-78
2022/10/09 12:39:47;;;;;;;5.60;1.88;;;16.50;99.90;;;;;;5074245;28;20031;-77
2022/10/09 12:42:17;;;;;;;6.80;3.13;;;16.60;99.90;;;;;;5072393;28;20036;-78
2022/10/09 12:44:44;;;;;;;4.32;1.58;;;16.70;99.90;;;;;;5072619;28;20020;-77
2022/10/09 12:47:28;;;;;;;5.15;1.90;;;16.70;99.90;;;;;;5072716;28;20041;-77
2022/10/09 12:49:56;;;;;;;5.63;2.03;;;16.80;99.90;;;;;;5073395;28;20020;-78
2022/10/09 12:52:21;;;;;;;7.43;2.17;;;16.80;99.90;;;;;;5074053;28;20032;-76
2022/10/09 12:54:47;;;;;;;5.45;1.77;;;16.80;99.90;;;;;;5074947;28;20052;-76
2022/10/09 12:57:15;;;;;;;4.70;2.35;;;16.90;99.90;;;;;;5071561;28;20028;-78
2022/10/09 12:59:42;;;;;;;5.72;1.85;;;17.00;99.90;;;;;;5071338;28;20030;-77
2022/10/09 13:02:10;;;;;;;3.58;1.77;;;17.00;99.90;;;;;;5071763;28;20027;-77
2022/10/09 13:04:36;;;;;;;6.22;1.70;;;17.20;99.90;;;;;;5071172;28;20111;-77
2022/10/09 13:07:06;;;;;;;3.17;1.67;;;17.30;99.90;;;;;;5074247;28;20054;-78